Time;durP1;ratioP1;P1;durP2;ratioP2;P2;SDS_P1;SDS_P2;PMS_P1;PMS_P2;Temp;Humidity;BMP_temperature;BMP_pressure;BME280_temperature;BME280_humidity;BME280_pressure;Samples;Min_cycle;Max_cycle;Signal;HPM_P1;HPM_P2
2021/12/20 00:00:41;;;;;;;19.27;11.37;;;-3276.20;86.00;;;;;;6183624;28;20236;-69
2021/12/20 00:03:42;;;;;;;18.20;10.53;;;-3276.30;85.50;;;;;;6184368;28;20200;-69
2021/12/20 00:06:42;;;;;;;14.73;10.80;;;-3276.30;85.70;;;;;;6193952;28;20207;-69
2021/12/20 00:09:43;;;;;;;18.03;11.60;;;-3276.20;85.70;;;;;;6192341;28;20196;-69
2021/12/20 00:12:45;;;;;;;19.83;11.37;;;-3276.20;85.90;;;;;;6175700;28;20230;-69
2021/12/20 00:15:46;;;;;;;15.93;10.97;;;-3276.30;85.80;;;;;;6208233;28;20180;-69
2021/12/20 00:18:46;;;;;;;19.63;11.30;;;-3276.30;86.50;;;;;;6191811;28;20196;-69
2021/12/20 00:21:47;;;;;;;17.17;11.43;;;-3276.40;86.40;;;;;;6175608;28;20197;-69
2021/12/20 00:24:48;;;;;;;18.63;11.77;;;-3276.50;86.40;;;;;;6191687;28;20234;-69
2021/12/20 00:27:49;;;;;;;16.97;11.03;;;-3276.60;86.70;;;;;;6190758;28;20194;-69
2021/12/20 00:30:49;;;;;;;18.63;11.67;;;-3276.60;86.30;;;;;;6184146;28;20219;-69
2021/12/20 00:33:50;;;;;;;18.23;10.17;;;-3276.50;86.10;;;;;;6183989;28;20227;-69
2021/12/20 00:37:00;;;;;;;18.30;12.20;;;-3276.50;86.10;;;;;;6183684;28;20222;-69
2021/12/20 00:40:21;;;;;;;14.73;11.27;;;-3276.40;85.80;;;;;;6204922;28;20183;-69
2021/12/20 00:43:22;;;;;;;20.07;11.97;;;-3276.40;85.70;;;;;;6207785;28;20187;-69
2021/12/20 00:46:23;;;;;;;18.00;10.90;;;-3276.40;85.80;;;;;;6190874;28;20195;-68
2021/12/20 00:49:23;;;;;;;15.80;11.10;;;-3276.40;85.60;;;;;;6207883;28;20191;-68
2021/12/20 00:52:25;;;;;;;17.37;11.80;;;-3276.20;86.20;;;;;;6184047;28;20237;-68
2021/12/20 00:55:29;;;;;;;17.83;11.57;;;-3276.20;86.10;;;;;;6191565;28;20192;-68
2021/12/20 00:58:29;;;;;;;14.53;10.13;;;-3276.30;86.30;;;;;;6190822;28;20188;-69
2021/12/20 01:01:30;;;;;;;16.83;11.17;;;-3276.40;86.30;;;;;;6199195;28;20196;-69
2021/12/20 01:04:31;;;;;;;17.47;10.97;;;-3276.60;85.60;;;;;;6167518;28;20191;-69
2021/12/20 01:07:32;;;;;;;17.00;10.80;;;-3276.60;85.80;;;;;;6181017;28;20197;-68
2021/12/20 01:10:35;;;;;;;16.20;11.53;;;-3276.60;85.70;;;;;;6183363;28;20198;-68
2021/12/20 01:13:40;;;;;;;9.37;6.33;;;-3276.60;85.40;;;;;;6187150;28;20297;-68
2021/12/20 01:16:41;;;;;;;2.47;1.60;;;0.00;84.10;;;;;;6215239;28;20179;-68
2021/12/20 01:19:42;;;;;;;1.10;0.97;;;0.90;75.70;;;;;;6194979;28;20219;-68
2021/12/20 01:22:47;;;;;;;5.57;4.50;;;1.80;72.30;;;;;;6199485;28;20188;-68
2021/12/20 01:25:47;;;;;;;11.37;6.97;;;2.00;72.30;;;;;;6215215;28;20355;-68
2021/12/20 01:28:48;;;;;;;5.13;3.70;;;1.80;74.10;;;;;;6211232;28;20203;-69
2021/12/20 01:31:50;;;;;;;2.30;2.10;;;1.80;72.80;;;;;;6225636;28;20215;-68
2021/12/20 01:34:51;;;;;;;2.23;2.00;;;2.10;70.50;;;;;;6191109;28;20187;-68
2021/12/20 01:37:53;;;;;;;4.23;3.00;;;2.50;70.50;;;;;;6227378;28;20203;-68
2021/12/20 01:40:54;;;;;;;7.83;5.23;;;2.50;71.00;;;;;;6211490;28;20257;-68
2021/12/20 01:43:55;;;;;;;8.00;6.00;;;2.40;70.70;;;;;;6211820;28;20183;-68
2021/12/20 01:46:56;;;;;;;11.33;7.53;;;2.10;72.80;;;;;;6210585;28;20194;-68
2021/12/20 01:50:03;;;;;;;14.47;8.47;;;1.80;74.60;;;;;;6224720;28;20221;-68
2021/12/20 01:53:04;;;;;;;15.83;8.80;;;1.70;76.30;;;;;;6202268;28;20226;-68
2021/12/20 01:56:06;;;;;;;13.27;8.53;;;1.50;76.80;;;;;;6203126;28;20687;-68
2021/12/20 01:59:08;;;;;;;13.23;8.90;;;1.40;77.70;;;;;;6203285;28;20339;-68
2021/12/20 02:02:09;;;;;;;12.03;8.73;;;1.40;77.60;;;;;;6203174;28;20296;-69
2021/12/20 02:05:22;;;;;;;13.43;9.07;;;1.30;77.80;;;;;;6205851;28;20207;-68
2021/12/20 02:08:25;;;;;;;12.13;8.57;;;1.30;78.50;;;;;;6219043;28;20195;-68
2021/12/20 02:11:27;;;;;;;12.13;8.23;;;1.30;78.10;;;;;;6237203;28;20208;-68
2021/12/20 02:14:28;;;;;;;12.87;7.90;;;1.40;77.80;;;;;;6240325;28;20319;-68
2021/12/20 02:17:28;;;;;;;14.57;8.17;;;1.40;78.60;;;;;;6222576;28;20199;-68
2021/12/20 02:20:32;;;;;;;11.87;7.27;;;1.40;78.40;;;;;;6218665;28;20226;-68
2021/12/20 02:23:33;;;;;;;10.43;6.90;;;1.50;77.70;;;;;;6218278;28;20187;-68
2021/12/20 02:26:35;;;;;;;9.93;6.30;;;1.60;76.60;;;;;;6226678;28;20198;-68
2021/12/20 02:30:00;;;;;;;10.00;6.77;;;1.70;75.70;;;;;;6209812;28;20226;-68
2021/12/20 02:39:25;;;;;;;8.43;5.47;;;1.80;74.30;;;;;;6226565;28;20273;-68
2021/12/20 02:42:32;;;;;;;8.43;6.10;;;1.80;75.10;;;;;;6249719;28;20194;-68
2021/12/20 02:45:37;;;;;;;9.00;6.33;;;1.80;75.90;;;;;;6230532;28;20274;-68
2021/12/20 02:48:37;;;;;;;9.13;5.67;;;1.80;75.50;;;;;;6194878;28;20194;-68
2021/12/20 02:51:39;;;;;;;10.27;6.57;;;1.80;75.30;;;;;;6226635;28;20226;-68
2021/12/20 02:54:40;;;;;;;9.53;6.27;;;1.80;76.00;;;;;;6226189;28;20194;-68
2021/12/20 02:57:42;;;;;;;10.97;6.27;;;1.70;75.90;;;;;;6209442;28;20199;-69
2021/12/20 03:00:43;;;;;;;8.67;6.20;;;1.70;77.00;;;;;;6209009;28;20239;-68
2021/12/20 03:03:44;;;;;;;12.67;7.03;;;1.60;77.10;;;;;;6209483;28;20183;-68
2021/12/20 03:06:55;;;;;;;10.77;6.93;;;1.40;77.60;;;;;;6213107;28;20201;-68
2021/12/20 03:10:02;;;;;;;6.90;5.30;;;1.40;78.00;;;;;;6225031;28;20196;-68
2021/12/20 03:13:03;;;;;;;6.27;5.67;;;1.50;77.60;;;;;;6233989;28;20226;-68
2021/12/20 03:16:05;;;;;;;7.23;5.13;;;1.50;77.50;;;;;;6200979;28;20221;-68
2021/12/20 03:19:05;;;;;;;6.10;4.83;;;1.40;77.70;;;;;;6225288;28;20630;-68
2021/12/20 03:22:07;;;;;;;5.40;4.30;;;1.40;78.40;;;;;;6193434;28;20199;-68
2021/12/20 03:25:08;;;;;;;5.00;4.30;;;1.50;78.20;;;;;;6249486;28;20201;-69
2021/12/20 03:28:09;;;;;;;6.17;4.80;;;1.50;77.80;;;;;;6218825;28;20282;-68
2021/12/20 03:31:12;;;;;;;7.23;6.40;;;1.30;78.50;;;;;;6208675;28;20212;-68
2021/12/20 03:34:13;;;;;;;9.77;6.47;;;1.30;78.50;;;;;;6202856;28;20287;-68
2021/12/20 03:37:14;;;;;;;8.87;6.27;;;1.30;78.20;;;;;;6198189;28;20198;-68
2021/12/20 03:40:15;;;;;;;6.50;5.20;;;1.30;78.50;;;;;;6224995;28;20285;-68
2021/12/20 03:43:18;;;;;;;7.40;4.83;;;1.30;78.40;;;;;;6225295;28;20187;-68
2021/12/20 03:46:19;;;;;;;7.10;4.73;;;1.30;78.70;;;;;;6209206;28;20191;-68
2021/12/20 03:49:19;;;;;;;6.40;4.40;;;1.20;78.70;;;;;;6224759;28;20241;-68
2021/12/20 03:52:20;;;;;;;4.57;3.60;;;1.30;78.80;;;;;;6208520;28;20225;-68
2021/12/20 03:55:21;;;;;;;2.57;2.10;;;1.30;76.50;;;;;;6207937;28;20198;-69
2021/12/20 03:58:22;;;;;;;3.13;2.60;;;1.70;73.40;;;;;;6180694;28;20203;-69
2021/12/20 04:01:24;;;;;;;3.90;3.50;;;1.80;74.40;;;;;;6217133;28;20199;-69
2021/12/20 04:04:25;;;;;;;4.87;3.40;;;1.80;74.00;;;;;;6200604;28;20279;-69
2021/12/20 04:07:26;;;;;;;4.17;2.30;;;1.60;75.40;;;;;;6212742;28;20249;-69
2021/12/20 04:10:27;;;;;;;3.23;2.03;;;1.70;74.20;;;;;;6210998;28;20201;-69
2021/12/20 04:13:28;;;;;;;4.60;3.77;;;1.70;74.40;;;;;;6223455;28;20218;-69
2021/12/20 04:16:29;;;;;;;4.67;3.40;;;1.60;74.80;;;;;;6208395;28;20197;-69
2021/12/20 04:19:30;;;;;;;5.23;3.90;;;1.40;76.00;;;;;;6207280;28;20209;-69
2021/12/20 04:22:31;;;;;;;8.17;4.27;;;1.50;75.40;;;;;;6184345;28;20199;-69
2021/12/20 04:25:32;;;;;;;5.50;3.50;;;1.40;75.40;;;;;;6191797;28;20201;-69
2021/12/20 04:28:32;;;;;;;8.87;5.17;;;1.30;75.30;;;;;;6207585;28;20229;-69
2021/12/20 04:31:35;;;;;;;7.40;6.33;;;1.40;75.40;;;;;;6223819;28;20218;-69
2021/12/20 04:34:36;;;;;;;11.17;6.60;;;1.30;76.00;;;;;;6216380;28;20222;-69
2021/12/20 04:37:40;;;;;;;8.97;6.10;;;1.20;77.20;;;;;;6208381;28;20193;-69
2021/12/20 04:40:40;;;;;;;11.97;7.07;;;1.10;77.00;;;;;;6229431;28;20207;-69
2021/12/20 04:43:41;;;;;;;8.67;6.30;;;1.00;77.70;;;;;;6191485;28;20195;-70
2021/12/20 04:46:42;;;;;;;9.50;6.17;;;1.00;78.00;;;;;;6190910;28;20206;-69
2021/12/20 04:49:43;;;;;;;8.50;6.27;;;0.90;78.00;;;;;;6223947;28;20193;-69
2021/12/20 04:52:43;;;;;;;8.67;6.13;;;0.80;78.40;;;;;;6207054;28;20228;-69
2021/12/20 04:55:44;;;;;;;9.90;6.47;;;0.80;78.40;;;;;;6223719;28;20195;-69
2021/12/20 04:58:48;;;;;;;9.30;6.77;;;0.80;78.40;;;;;;6191499;28;20247;-70
2021/12/20 05:01:49;;;;;;;8.80;4.90;;;0.60;79.10;;;;;;6217911;28;20191;-69
2021/12/20 05:04:49;;;;;;;7.40;5.37;;;0.60;78.80;;;;;;6210297;28;20209;-69
2021/12/20 05:07:53;;;;;;;9.33;6.67;;;0.60;78.90;;;;;;6195860;28;20238;-69
2021/12/20 05:10:53;;;;;;;12.43;6.40;;;0.50;78.80;;;;;;6211980;28;20178;-69
2021/12/20 05:13:54;;;;;;;8.13;6.10;;;0.50;78.80;;;;;;6230750;28;20229;-69
2021/12/20 05:16:55;;;;;;;8.70;6.00;;;0.60;78.80;;;;;;6203144;28;20312;-69
2021/12/20 05:19:56;;;;;;;8.93;5.47;;;0.50;79.40;;;;;;6214786;28;20191;-69
2021/12/20 05:22:58;;;;;;;8.60;6.00;;;0.50;78.50;;;;;;6228696;28;20202;-69
2021/12/20 05:25:59;;;;;;;8.23;3.97;;;0.50;78.90;;;;;;6225790;28;20217;-69
2021/12/20 05:29:05;;;;;;;5.37;3.40;;;0.60;79.20;;;;;;6194988;28;20214;-69
2021/12/20 05:32:07;;;;;;;7.00;4.13;;;0.60;78.30;;;;;;6202249;28;20302;-69
2021/12/20 05:35:10;;;;;;;4.73;3.07;;;0.60;78.20;;;;;;6233710;28;20187;-70
2021/12/20 05:38:10;;;;;;;7.13;4.90;;;0.60;78.40;;;;;;6248739;28;20198;-69
2021/12/20 05:41:11;;;;;;;5.60;3.90;;;0.60;77.60;;;;;;6218364;28;20192;-69
2021/12/20 05:44:12;;;;;;;6.07;3.30;;;0.60;78.20;;;;;;6193283;28;20224;-70
2021/12/20 05:47:13;;;;;;;4.47;2.93;;;0.50;78.30;;;;;;6237198;28;20190;-70
2021/12/20 05:50:16;;;;;;;3.47;2.20;;;0.60;77.70;;;;;;6201083;28;20228;-72
2021/12/20 05:53:17;;;;;;;3.00;2.03;;;0.80;76.90;;;;;;6201954;28;20311;-70
2021/12/20 05:56:18;;;;;;;4.63;3.13;;;0.80;76.80;;;;;;6212468;28;20200;-69
2021/12/20 05:59:19;;;;;;;4.03;2.50;;;0.90;76.50;;;;;;6226973;28;20238;-69
2021/12/20 06:02:20;;;;;;;3.43;2.17;;;0.90;76.40;;;;;;6204129;28;20205;-70
2021/12/20 06:05:23;;;;;;;2.40;1.50;;;0.90;75.10;;;;;;6215966;28;20241;-70
2021/12/20 06:08:23;;;;;;;1.50;1.33;;;0.90;74.60;;;;;;6194532;28;20298;-69
2021/12/20 06:11:24;;;;;;;1.67;1.50;;;1.00;73.70;;;;;;6203993;28;20221;-69
2021/12/20 06:14:27;;;;;;;2.43;1.57;;;1.10;73.10;;;;;;6228469;28;20210;-69
2021/12/20 06:17:28;;;;;;;2.20;1.57;;;1.20;73.30;;;;;;6210783;28;20202;-70
2021/12/20 06:20:28;;;;;;;3.13;1.57;;;1.10;73.70;;;;;;6215506;28;20202;-70
2021/12/20 06:23:29;;;;;;;1.50;1.40;;;1.10;74.00;;;;;;6206129;28;20196;-69
2021/12/20 06:26:30;;;;;;;1.50;1.40;;;1.10;73.30;;;;;;6196807;28;20211;-69
2021/12/20 06:29:31;;;;;;;5.10;1.77;;;1.10;73.40;;;;;;6217885;28;20213;-69
2021/12/20 06:32:32;;;;;;;1.53;1.20;;;1.10;73.50;;;;;;6215238;28;20230;-70
2021/12/20 06:35:34;;;;;;;1.80;1.13;;;1.20;74.10;;;;;;6227264;28;20197;-69
2021/12/20 06:38:35;;;;;;;0.90;0.90;;;1.20;72.40;;;;;;6242629;28;20201;-69
2021/12/20 06:41:37;;;;;;;3.63;1.53;;;1.30;71.90;;;;;;6248878;28;20293;-69
2021/12/20 06:44:37;;;;;;;2.27;1.30;;;1.30;72.40;;;;;;6218779;28;20217;-70
2021/12/20 06:47:38;;;;;;;2.20;1.27;;;1.30;71.50;;;;;;6201448;28;20198;-69
2021/12/20 06:50:39;;;;;;;2.03;1.03;;;1.30;71.30;;;;;;6215640;28;20203;-70
2021/12/20 06:53:40;;;;;;;2.77;1.67;;;1.40;70.60;;;;;;6237300;28;20225;-69
2021/12/20 06:56:42;;;;;;;1.60;1.37;;;1.30;72.80;;;;;;6217835;28;20225;-69
2021/12/20 06:59:42;;;;;;;2.13;1.37;;;1.30;72.60;;;;;;6239244;28;20261;-69
2021/12/20 07:02:43;;;;;;;1.93;1.33;;;1.30;71.80;;;;;;6214742;28;20202;-69
2021/12/20 07:05:45;;;;;;;2.07;1.87;;;1.10;73.40;;;;;;6197272;28;20227;-69
2021/12/20 07:08:46;;;;;;;2.50;1.60;;;1.00;73.20;;;;;;6216361;28;20199;-69
2021/12/20 07:11:47;;;;;;;4.90;1.30;;;1.00;74.00;;;;;;6206578;28;20225;-69
2021/12/20 07:14:50;;;;;;;4.20;1.30;;;0.90;74.10;;;;;;6200443;28;20196;-69
2021/12/20 07:17:51;;;;;;;1.10;1.00;;;1.00;73.60;;;;;;6205888;28;20291;-69
2021/12/20 07:20:52;;;;;;;3.40;2.37;;;0.90;74.20;;;;;;6204023;28;20203;-69
2021/12/20 07:23:53;;;;;;;20.90;11.27;;;1.10;73.20;;;;;;6195469;28;20255;-69
2021/12/20 07:26:54;;;;;;;4.57;2.77;;;1.30;71.80;;;;;;6238130;28;20290;-69
2021/12/20 07:29:54;;;;;;;2.30;1.20;;;1.50;72.60;;;;;;6191611;28;20230;-69
2021/12/20 07:32:55;;;;;;;0.77;0.77;;;1.40;72.10;;;;;;6190834;28;20224;-69
2021/12/20 07:35:56;;;;;;;1.50;1.00;;;1.50;71.70;;;;;;6206511;28;20215;-69
2021/12/20 07:38:59;;;;;;;1.93;1.20;;;1.50;72.40;;;;;;6220221;28;20199;-69
2021/12/20 07:42:01;;;;;;;1.17;1.00;;;1.60;72.40;;;;;;6232502;28;20206;-69
2021/12/20 07:45:03;;;;;;;1.90;1.10;;;1.60;72.20;;;;;;6207029;28;20209;-69
2021/12/20 07:48:04;;;;;;;1.07;0.90;;;1.60;72.90;;;;;;6207398;28;20200;-69
2021/12/20 07:51:05;;;;;;;0.90;0.80;;;1.50;73.20;;;;;;6206296;28;20229;-69
2021/12/20 07:54:05;;;;;;;0.80;0.80;;;1.50;73.50;;;;;;6211988;28;20192;-69
2021/12/20 07:57:06;;;;;;;1.13;1.03;;;1.60;74.00;;;;;;6222382;28;20204;-69
2021/12/20 08:00:09;;;;;;;0.90;0.80;;;1.70;73.00;;;;;;6214501;28;20243;-69
2021/12/20 08:03:17;;;;;;;0.60;0.60;;;1.80;72.40;;;;;;6219690;28;20207;-68
2021/12/20 08:06:18;;;;;;;0.97;0.70;;;2.00;71.00;;;;;;6212420;28;20223;-68
2021/12/20 08:09:19;;;;;;;1.03;0.67;;;2.30;71.00;;;;;;6196531;28;20208;-68
2021/12/20 08:12:20;;;;;;;2.00;0.70;;;2.30;70.40;;;;;;6180016;28;20310;-68
2021/12/20 08:15:22;;;;;;;1.63;0.90;;;2.50;69.30;;;;;;6202964;28;20246;-69
2021/12/20 08:18:22;;;;;;;0.83;0.60;;;2.50;70.30;;;;;;6212382;28;20210;-68
2021/12/20 08:21:23;;;;;;;1.10;0.60;;;2.60;69.40;;;;;;6227058;28;20227;-69
2021/12/20 08:24:24;;;;;;;3.23;0.63;;;2.70;67.90;;;;;;6208635;28;20338;-67
2021/12/20 08:27:25;;;;;;;1.03;0.60;;;2.70;68.90;;;;;;6200648;28;20191;-69
2021/12/20 08:30:26;;;;;;;1.10;0.90;;;2.80;68.50;;;;;;6198302;28;20286;-67
2021/12/20 08:33:27;;;;;;;1.30;0.90;;;3.00;67.20;;;;;;6194097;28;20275;-67
2021/12/20 08:36:27;;;;;;;2.47;0.77;;;3.10;68.40;;;;;;6213590;28;20291;-68
2021/12/20 08:39:33;;;;;;;1.80;0.93;;;3.10;69.00;;;;;;6197653;28;20195;-69
2021/12/20 08:42:34;;;;;;;10.60;6.00;;;3.10;69.30;;;;;;6175584;28;20208;-68
2021/12/20 08:45:34;;;;;;;5.20;2.77;;;3.20;68.20;;;;;;6179535;28;20271;-68
2021/12/20 08:48:35;;;;;;;1.57;1.20;;;3.30;68.30;;;;;;6197109;28;20200;-68
2021/12/20 08:51:37;;;;;;;1.00;0.80;;;3.30;66.60;;;;;;6197375;28;20311;-68
2021/12/20 08:54:38;;;;;;;0.90;0.90;;;3.40;66.30;;;;;;6172220;28;20257;-68
2021/12/20 08:57:39;;;;;;;0.80;0.80;;;3.60;66.60;;;;;;6197119;28;20196;-68
2021/12/20 09:00:40;;;;;;;1.10;0.70;;;3.70;65.40;;;;;;6217981;28;20238;-68
2021/12/20 09:03:41;;;;;;;0.70;0.70;;;3.80;65.40;;;;;;6193250;28;20214;-69
2021/12/20 09:06:43;;;;;;;0.70;0.50;;;4.10;60.60;;;;;;6244093;28;20214;-69
2021/12/20 09:09:46;;;;;;;0.87;0.47;;;4.30;61.00;;;;;;6236498;28;20195;-68
2021/12/20 09:12:48;;;;;;;0.53;0.53;;;4.60;60.10;;;;;;6223109;28;20219;-68
2021/12/20 09:15:49;;;;;;;2.87;1.13;;;4.50;61.90;;;;;;6226848;28;20230;-68
2021/12/20 09:18:49;;;;;;;0.83;0.60;;;4.70;60.10;;;;;;6221904;28;20202;-68
2021/12/20 09:21:50;;;;;;;0.50;0.40;;;4.80;58.90;;;;;;6222368;28;20209;-68
2021/12/20 09:24:51;;;;;;;0.40;0.40;;;5.00;57.60;;;;;;6204939;28;20244;-68
2021/12/20 09:27:55;;;;;;;0.57;0.50;;;5.30;57.30;;;;;;6222241;28;20297;-68
2021/12/20 09:30:56;;;;;;;0.50;0.50;;;5.40;55.50;;;;;;6246202;28;20198;-68
2021/12/20 09:33:57;;;;;;;0.60;0.60;;;5.50;56.40;;;;;;6213769;28;20309;-68
2021/12/20 09:37:04;;;;;;;0.40;0.40;;;5.70;56.90;;;;;;6220514;28;20289;-68
2021/12/20 09:40:13;;;;;;;0.97;0.70;;;5.80;55.70;;;;;;6204570;28;20192;-68
2021/12/20 09:43:14;;;;;;;0.20;0.20;;;5.90;54.40;;;;;;6220974;28;20200;-68
2021/12/20 09:46:17;;;;;;;0.80;0.50;;;6.10;54.90;;;;;;6228623;28;20190;-68
2021/12/20 09:49:19;;;;;;;0.77;0.60;;;6.20;53.90;;;;;;6250093;28;20661;-68
2021/12/20 09:52:20;;;;;;;0.30;0.30;;;6.30;55.40;;;;;;6232584;28;20230;-69
2021/12/20 09:55:21;;;;;;;1.83;0.50;;;6.40;52.80;;;;;;6211650;28;20197;-69
2021/12/20 09:58:23;;;;;;;0.60;0.50;;;6.50;53.80;;;;;;6209323;28;20717;-69
2021/12/20 10:01:26;;;;;;;3.03;0.83;;;6.50;50.90;;;;;;6231270;28;20240;-69
2021/12/20 10:04:27;;;;;;;0.77;0.37;;;6.50;51.60;;;;;;6209742;28;20191;-69
2021/12/20 10:07:29;;;;;;;0.37;0.37;;;6.60;52.20;;;;;;6228071;28;20226;-68
2021/12/20 10:10:48;;;;;;;0.40;0.40;;;6.50;51.70;;;;;;6381209;27;20301;-69
2021/12/20 10:14:00;;;;;;;0.30;0.30;;;6.50;51.50;;;;;;6375136;27;20186;-67
2021/12/20 10:17:05;;;;;;;0.43;0.40;;;6.60;51.20;;;;;;6363314;27;20198;-69
2021/12/20 10:20:22;;;;;;;0.50;0.43;;;6.60;50.80;;;;;;6333223;27;20202;-68
2021/12/20 10:23:24;;;;;;;0.30;0.30;;;6.60;50.60;;;;;;6365213;27;20262;-67
2021/12/20 10:26:24;;;;;;;0.50;0.40;;;6.50;50.50;;;;;;6375437;27;20186;-68
2021/12/20 10:29:25;;;;;;;0.97;0.50;;;6.60;50.30;;;;;;6352510;27;20263;-67
2021/12/20 10:32:40;;;;;;;1.90;0.50;;;6.60;51.00;;;;;;6372902;27;20198;-69
2021/12/20 10:35:52;;;;;;;1.37;0.50;;;6.60;51.70;;;;;;6341937;27;20202;-69
2021/12/20 10:38:58;;;;;;;0.37;0.33;;;6.50;51.50;;;;;;6349543;27;20206;-68
2021/12/20 10:42:17;;;;;;;0.40;0.40;;;6.40;51.10;;;;;;6375448;27;20212;-67
2021/12/20 10:45:20;;;;;;;2.13;1.10;;;6.30;50.90;;;;;;6374021;27;20271;-67
2021/12/20 10:48:21;;;;;;;0.50;0.50;;;6.40;50.60;;;;;;6374966;27;20214;-67
2021/12/20 10:51:25;;;;;;;1.40;0.67;;;6.40;50.80;;;;;;6375544;27;20186;-69
2021/12/20 10:54:31;;;;;;;1.83;0.87;;;6.40;49.10;;;;;;6344442;27;20183;-67
2021/12/20 10:57:32;;;;;;;1.27;0.30;;;6.30;48.90;;;;;;6336716;27;20196;-67
2021/12/20 11:00:33;;;;;;;2.70;0.50;;;6.30;48.10;;;;;;6345950;27;20293;-67
2021/12/20 11:03:39;;;;;;;0.63;0.60;;;6.40;48.00;;;;;;6365817;27;20224;-67
2021/12/20 11:10:08;;;;;;;0.20;0.20;;;6.40;48.80;;;;;;6364643;27;20592;-68
2021/12/20 11:13:16;;;;;;;4.43;1.77;;;6.60;47.50;;;;;;6333318;27;20198;-68
2021/12/20 11:16:42;;;;;;;0.30;0.30;;;6.60;48.50;;;;;;6340379;27;20700;-69
2021/12/20 11:19:46;;;;;;;1.23;0.77;;;6.70;47.90;;;;;;6366592;27;20184;-68
2021/12/20 11:22:46;;;;;;;2.83;1.37;;;6.80;47.50;;;;;;6350263;27;20183;-69
2021/12/20 11:25:48;;;;;;;0.30;0.30;;;6.90;47.40;;;;;;6315974;28;20202;-68
2021/12/20 11:28:50;;;;;;;1.40;0.30;;;7.10;47.10;;;;;;6312794;28;20212;-68
2021/12/20 11:31:52;;;;;;;0.70;0.70;;;7.20;45.80;;;;;;6315809;27;20211;-67
2021/12/20 11:34:54;;;;;;;1.20;0.50;;;7.30;47.10;;;;;;6344827;27;20183;-68
2021/12/20 11:37:54;;;;;;;0.97;0.60;;;7.30;46.40;;;;;;6315647;28;20191;-68
2021/12/20 11:40:56;;;;;;;0.60;0.50;;;7.50;45.20;;;;;;6332405;27;20194;-68
2021/12/20 11:43:59;;;;;;;0.93;0.80;;;7.50;44.20;;;;;;6308043;28;20936;-69
2021/12/20 11:47:23;;;;;;;2.53;0.70;;;7.60;43.80;;;;;;6317199;28;20192;-69
2021/12/20 11:50:38;;;;;;;1.17;0.70;;;7.80;42.80;;;;;;6350666;28;20303;-69
2021/12/20 11:53:40;;;;;;;0.87;0.60;;;7.80;41.60;;;;;;6334410;28;20179;-68
2021/12/20 11:56:41;;;;;;;1.07;0.77;;;7.80;41.40;;;;;;6337399;28;20196;-68
2021/12/20 11:59:53;;;;;;;1.33;0.70;;;7.80;41.20;;;;;;6338742;27;20225;-68
2021/12/20 12:03:02;;;;;;;1.00;0.80;;;7.80;40.60;;;;;;6321580;28;20196;-68
2021/12/20 12:06:10;;;;;;;1.70;0.60;;;7.90;39.90;;;;;;6353987;27;20195;-68
2021/12/20 12:09:11;;;;;;;7.80;4.10;;;8.10;40.10;;;;;;6313718;28;20297;-68
2021/12/20 12:12:26;;;;;;;1.30;0.87;;;8.10;38.60;;;;;;6320433;27;20192;-68
2021/12/20 12:15:44;;;;;;;2.73;1.63;;;8.00;37.90;;;;;;6344937;28;20233;-67
2021/12/20 12:18:50;;;;;;;1.63;0.60;;;8.20;38.90;;;;;;6330695;27;20192;-69
2021/12/20 12:21:51;;;;;;;2.53;0.50;;;8.00;35.50;;;;;;6318560;28;20203;-68
2021/12/20 12:24:54;;;;;;;1.77;1.10;;;8.10;38.00;;;;;;6298588;28;20220;-68
2021/12/20 12:27:59;;;;;;;0.57;0.57;;;8.10;36.50;;;;;;6346447;28;20184;-67
2021/12/20 12:31:03;;;;;;;1.17;0.80;;;8.00;35.20;;;;;;6303102;27;20199;-67
2021/12/20 12:34:06;;;;;;;0.70;0.70;;;8.00;36.10;;;;;;6301862;27;20184;-67
2021/12/20 12:37:27;;;;;;;1.13;1.03;;;8.00;35.70;;;;;;6352925;27;20296;-67
2021/12/20 12:40:29;;;;;;;3.47;0.80;;;8.00;36.40;;;;;;6334389;27;20228;-67
2021/12/20 12:43:55;;;;;;;0.60;0.60;;;8.00;35.90;;;;;;6328964;27;20650;-68
2021/12/20 12:47:13;;;;;;;1.43;0.70;;;8.00;35.60;;;;;;6333358;27;20193;-68
2021/12/20 12:50:25;;;;;;;0.60;0.60;;;8.00;34.20;;;;;;6344531;27;20258;-67
2021/12/20 12:53:40;;;;;;;0.50;0.50;;;7.90;36.50;;;;;;6318855;28;20196;-67
2021/12/20 12:56:41;;;;;;;0.53;0.53;;;8.00;33.80;;;;;;6317329;28;20218;-68
2021/12/20 12:59:56;;;;;;;2.30;0.80;;;8.10;33.90;;;;;;6364652;27;20656;-68
2021/12/20 13:03:06;;;;;;;0.60;0.57;;;8.20;34.90;;;;;;6330456;27;20196;-66
2021/12/20 13:06:18;;;;;;;0.67;0.60;;;8.30;33.30;;;;;;6358256;27;20292;-67
2021/12/20 13:09:31;;;;;;;6.67;0.80;;;8.30;34.40;;;;;;6323428;28;20228;-67
2021/12/20 13:12:56;;;;;;;2.17;0.80;;;8.60;33.70;;;;;;6353755;27;20194;-68
2021/12/20 13:16:04;;;;;;;0.90;0.87;;;8.60;33.90;;;;;;6354517;27;20195;-67
2021/12/20 13:19:05;;;;;;;1.20;1.00;;;8.80;34.60;;;;;;6336060;27;20276;-68
2021/12/20 13:22:06;;;;;;;1.80;0.73;;;8.90;32.90;;;;;;6348942;27;20764;-68
2021/12/20 13:25:07;;;;;;;2.67;0.70;;;8.80;32.60;;;;;;6298490;28;20188;-69
2021/12/20 13:28:12;;;;;;;1.70;1.00;;;8.90;33.20;;;;;;6339534;28;20211;-68
2021/12/20 13:31:21;;;;;;;0.90;0.80;;;9.10;34.00;;;;;;6324827;28;20196;-68
2021/12/20 13:34:22;;;;;;;0.70;0.70;;;9.30;32.20;;;;;;6313300;28;20192;-68
2021/12/20 13:37:31;;;;;;;1.67;1.13;;;9.20;32.60;;;;;;6323234;28;20202;-71
2021/12/20 13:41:03;;;;;;;0.60;0.60;;;9.30;32.30;;;;;;6319398;28;20246;-67
2021/12/20 13:44:08;;;;;;;0.70;0.67;;;9.30;32.70;;;;;;6303225;28;20199;-64
2021/12/20 13:47:16;;;;;;;1.63;0.60;;;9.10;33.10;;;;;;6348344;28;20528;-66
2021/12/20 13:50:18;;;;;;;1.00;0.70;;;9.00;33.60;;;;;;6332478;27;20223;-66
2021/12/20 13:53:28;;;;;;;0.73;0.70;;;9.10;33.00;;;;;;6333300;28;20634;-67
2021/12/20 13:56:29;;;;;;;0.93;0.83;;;8.80;32.70;;;;;;6335320;28;20219;-67
2021/12/20 13:59:29;;;;;;;1.80;1.27;;;8.70;33.50;;;;;;6337315;28;20196;-66
2021/12/20 14:02:38;;;;;;;0.80;0.80;;;8.80;34.20;;;;;;6305389;28;20193;-67
2021/12/20 14:05:39;;;;;;;1.87;0.90;;;8.80;33.50;;;;;;6342828;28;20196;-64
2021/12/20 14:08:40;;;;;;;0.83;0.70;;;8.80;34.00;;;;;;6313353;28;20239;-64
2021/12/20 14:11:40;;;;;;;2.17;1.00;;;8.60;33.50;;;;;;6328177;28;20184;-63
2021/12/20 14:15:02;;;;;;;1.50;1.00;;;8.40;33.00;;;;;;6330965;28;20699;-64
2021/12/20 14:18:04;;;;;;;3.70;0.60;;;8.20;34.80;;;;;;6357090;28;20255;-64
2021/12/20 14:21:09;;;;;;;0.70;0.70;;;8.10;34.30;;;;;;6308090;28;20268;-66
2021/12/20 14:24:10;;;;;;;0.80;0.70;;;7.70;34.60;;;;;;6347753;28;20196;-67
2021/12/20 14:27:12;;;;;;;1.90;0.90;;;7.60;35.30;;;;;;6326447;28;20195;-67
2021/12/20 14:30:21;;;;;;;1.07;0.80;;;7.50;36.70;;;;;;6332093;28;20314;-67
2021/12/20 14:33:33;;;;;;;1.67;0.80;;;7.40;35.40;;;;;;6347510;28;20249;-66
2021/12/20 14:36:42;;;;;;;3.57;0.90;;;7.30;37.00;;;;;;6331209;28;20560;-66
2021/12/20 14:39:44;;;;;;;1.50;0.93;;;7.30;36.30;;;;;;6348292;28;20196;-67
2021/12/20 14:43:06;;;;;;;1.00;0.90;;;7.10;37.60;;;;;;6330385;28;20567;-67
2021/12/20 14:46:32;;;;;;;1.43;0.90;;;7.00;36.70;;;;;;6330928;28;20192;-67
2021/12/20 14:50:15;;;;;;;1.80;0.80;;;6.80;36.00;;;;;;6365247;28;20230;-67
2021/12/20 14:53:24;;;;;;;2.73;0.97;;;6.70;36.90;;;;;;6323661;28;20257;-67
2021/12/20 14:56:29;;;;;;;1.80;1.00;;;6.60;37.10;;;;;;6353759;27;20254;-66
2021/12/20 14:59:32;;;;;;;1.27;0.80;;;6.50;37.50;;;;;;6352729;28;20169;-67
2021/12/20 15:02:41;;;;;;;1.33;1.07;;;6.30;37.80;;;;;;6351977;28;20192;-66
2021/12/20 15:05:45;;;;;;;1.03;0.80;;;6.30;38.20;;;;;;6335391;28;20273;-67
2021/12/20 15:08:46;;;;;;;4.73;1.23;;;6.20;38.00;;;;;;6328331;28;20350;-68
2021/12/20 15:11:47;;;;;;;3.17;1.10;;;6.00;38.80;;;;;;6318693;28;20183;-67
2021/12/20 15:14:48;;;;;;;3.40;1.80;;;5.90;38.40;;;;;;6332047;27;20183;-69
2021/12/20 15:17:48;;;;;;;2.90;1.17;;;5.80;38.80;;;;;;6335530;27;20198;-70
2021/12/20 15:20:49;;;;;;;3.10;1.10;;;5.80;38.30;;;;;;6317767;27;20196;-68
2021/12/20 15:23:50;;;;;;;2.63;1.10;;;5.60;39.20;;;;;;6345757;27;20199;-66
2021/12/20 15:26:51;;;;;;;1.90;1.47;;;5.40;40.90;;;;;;6313264;28;20195;-67
2021/12/20 15:29:52;;;;;;;3.60;1.40;;;5.40;41.50;;;;;;6359283;27;20208;-67
2021/12/20 15:32:54;;;;;;;1.40;1.10;;;5.30;41.20;;;;;;6324360;27;20187;-68
2021/12/20 15:35:54;;;;;;;1.10;1.00;;;5.10;42.40;;;;;;6318178;28;20175;-68
2021/12/20 15:38:56;;;;;;;2.67;0.93;;;5.00;42.20;;;;;;6370380;27;20549;-67
2021/12/20 15:41:58;;;;;;;3.30;1.50;;;5.00;43.00;;;;;;6334230;27;20197;-67
2021/12/20 15:45:00;;;;;;;2.87;1.17;;;4.80;46.30;;;;;;6344758;28;20576;-67
2021/12/20 15:48:01;;;;;;;3.60;1.80;;;4.60;44.20;;;;;;6353599;27;20187;-67
2021/12/20 15:51:03;;;;;;;3.80;1.73;;;4.50;43.90;;;;;;6317722;28;20210;-68
2021/12/20 15:54:04;;;;;;;4.20;1.43;;;4.40;44.00;;;;;;6317207;28;20183;-67
2021/12/20 15:57:05;;;;;;;3.07;1.50;;;4.20;47.00;;;;;;6359083;27;20203;-67
2021/12/20 16:00:08;;;;;;;2.57;1.60;;;4.10;46.90;;;;;;6329742;27;20214;-68
2021/12/20 16:03:09;;;;;;;3.27;1.30;;;4.00;48.90;;;;;;6324895;28;20238;-68
2021/12/20 16:06:09;;;;;;;4.00;1.60;;;3.80;47.20;;;;;;6349855;27;20195;-67
2021/12/20 16:09:12;;;;;;;2.73;1.53;;;3.80;49.10;;;;;;6348959;27;20231;-68